Time;durP1;ratioP1;P1;durP2;ratioP2;P2;SDS_P1;SDS_P2;PMS_P1;PMS_P2;Temp;Humidity;BMP_temperature;BMP_pressure;BME280_temperature;BME280_humidity;BME280_pressure;Samples;Min_cycle;Max_cycle;Signal;HPM_P1;HPM_P2
2021/07/08 00:01:34;;;;;;;0.40;0.20;;;;;;;16.67;100.00;100499.66;5072636;28;20488;-52
2021/07/08 00:04:01;;;;;;;0.40;0.20;;;;;;;16.54;100.00;100504.72;5073279;28;20462;-51
2021/07/08 00:06:28;;;;;;;0.40;0.20;;;;;;;16.60;100.00;100503.56;5052607;28;20447;-51
2021/07/08 00:08:55;;;;;;;0.40;0.30;;;;;;;16.74;100.00;100506.47;5070294;28;20450;-51
2021/07/08 00:11:22;;;;;;;0.40;0.20;;;;;;;16.55;100.00;100500.22;5073395;28;21062;-51
2021/07/08 00:13:49;;;;;;;0.50;0.30;;;;;;;16.73;100.00;100495.81;5058359;28;20468;-51
2021/07/08 00:16:16;;;;;;;0.40;0.20;;;;;;;16.78;100.00;100499.97;5064140;28;20449;-51
2021/07/08 00:18:43;;;;;;;0.40;0.20;;;;;;;16.60;100.00;100492.81;5071976;28;20457;-51
2021/07/08 00:21:10;;;;;;;0.40;0.20;;;;;;;16.70;100.00;100504.84;5072021;28;20474;-51
2021/07/08 00:23:37;;;;;;;0.40;0.20;;;;;;;16.72;100.00;100518.19;5073257;28;20446;-51
2021/07/08 00:26:04;;;;;;;0.40;0.20;;;;;;;16.62;100.00;100515.09;5060403;28;20500;-51
2021/07/08 00:28:31;;;;;;;0.40;0.20;;;;;;;16.57;100.00;100523.34;5071312;28;20453;-51
2021/07/08 00:30:58;;;;;;;0.50;0.40;;;;;;;16.58;100.00;100519.75;5069725;28;20490;-51
2021/07/08 00:33:25;;;;;;;0.43;0.30;;;;;;;16.51;100.00;100512.06;5072112;28;20450;-51
2021/07/08 00:35:53;;;;;;;0.40;0.20;;;;;;;16.45;100.00;100515.06;5071930;28;20541;-51
2021/07/08 00:38:20;;;;;;;0.40;0.30;;;;;;;16.30;100.00;100517.53;5071377;28;20454;-51
2021/07/08 00:40:47;;;;;;;0.70;0.70;;;;;;;16.48;100.00;100510.41;5071180;28;20517;-51
2021/07/08 00:43:14;;;;;;;0.40;0.30;;;;;;;16.29;100.00;100504.19;5051450;28;20541;-51
2021/07/08 00:45:42;;;;;;;0.40;0.20;;;;;;;16.40;100.00;100500.97;5065123;28;20485;-51
2021/07/08 00:48:09;;;;;;;0.40;0.20;;;;;;;16.39;100.00;100502.78;5073214;28;20515;-51
2021/07/08 00:50:42;;;;;;;0.40;0.20;;;;;;;16.39;100.00;100508.16;5072703;28;20505;-51
2021/07/08 00:53:15;;;;;;;0.40;0.20;;;;;;;16.24;100.00;100512.47;5059402;28;20438;-51
2021/07/08 00:55:45;;;;;;;0.40;0.20;;;;;;;16.23;100.00;100513.41;5054776;28;20441;-50
2021/07/08 00:58:17;;;;;;;0.63;0.63;;;;;;;16.29;100.00;100510.41;5072429;28;20463;-52
2021/07/08 01:00:44;;;;;;;0.40;0.30;;;;;;;16.05;100.00;100516.13;5069318;28;20629;-52
2021/07/08 01:03:13;;;;;;;0.40;0.20;;;;;;;15.76;100.00;100521.03;5060527;28;20874;-51
2021/07/08 01:05:47;;;;;;;0.40;0.20;;;;;;;15.77;100.00;100521.91;5072225;28;20473;-51
2021/07/08 01:08:14;;;;;;;0.40;0.20;;;;;;;16.04;100.00;100514.38;5072656;28;20442;-51
2021/07/08 01:10:44;;;;;;;0.50;0.30;;;;;;;16.07;100.00;100515.09;5070922;28;20540;-51
2021/07/08 01:13:15;;;;;;;0.40;0.20;;;;;;;16.19;100.00;100514.50;5051638;28;20441;-51
2021/07/08 01:15:43;;;;;;;0.40;0.20;;;;;;;16.26;100.00;100515.94;5062722;28;20971;-51
2021/07/08 01:18:10;;;;;;;0.40;0.20;;;;;;;16.10;100.00;100517.63;5071467;28;20468;-51
2021/07/08 01:20:39;;;;;;;1.40;1.30;;;;;;;16.04;100.00;100507.19;5072467;28;20515;-51
2021/07/08 01:23:06;;;;;;;0.40;0.20;;;;;;;16.22;100.00;100503.63;5070949;28;20454;-51
2021/07/08 01:25:36;;;;;;;0.40;0.20;;;;;;;16.10;100.00;100498.84;5065050;28;20470;-51
2021/07/08 01:28:06;;;;;;;0.40;0.30;;;;;;;16.16;100.00;100505.72;5065661;28;20462;-52
2021/07/08 01:30:37;;;;;;;0.40;0.20;;;;;;;15.98;100.00;100512.84;5072336;28;20501;-51
2021/07/08 01:33:06;;;;;;;0.40;0.20;;;;;;;16.05;100.00;100506.25;5069107;28;20965;-50
2021/07/08 01:35:33;;;;;;;0.43;0.40;;;;;;;16.04;100.00;100509.88;5072560;28;20493;-51
2021/07/08 01:38:00;;;;;;;0.40;0.20;;;;;;;15.97;100.00;100514.66;5071931;28;20681;-51
2021/07/08 01:40:27;;;;;;;0.40;0.20;;;;;;;15.96;100.00;100520.97;5050949;28;20451;-51
2021/07/08 01:42:54;;;;;;;0.50;0.40;;;;;;;16.04;100.00;100515.25;5068716;28;20462;-51
2021/07/08 01:45:22;;;;;;;0.40;0.20;;;;;;;15.92;100.00;100519.38;5071117;28;20531;-52
2021/07/08 01:47:49;;;;;;;1.80;1.27;;;;;;;15.87;100.00;100512.47;5071952;28;20458;-51
2021/07/08 01:50:18;;;;;;;0.40;0.20;;;;;;;15.94;100.00;100514.81;5070544;28;20543;-51
2021/07/08 01:52:46;;;;;;;0.40;0.20;;;;;;;15.94;100.00;100511.25;5071545;28;20470;-51
2021/07/08 01:55:15;;;;;;;0.40;0.20;;;;;;;15.92;100.00;100516.69;5070777;28;20821;-51
2021/07/08 01:57:44;;;;;;;0.40;0.20;;;;;;;15.88;100.00;100498.13;5071934;28;20834;-51
2021/07/08 02:00:13;;;;;;;0.40;0.20;;;;;;;15.69;100.00;100515.06;5070548;28;20463;-51
2021/07/08 02:02:42;;;;;;;0.40;0.20;;;;;;;15.85;100.00;100506.31;5070280;28;20457;-51
2021/07/08 02:05:10;;;;;;;0.40;0.20;;;;;;;15.85;100.00;100514.34;5070844;28;20483;-51
2021/07/08 02:07:38;;;;;;;0.40;0.20;;;;;;;15.86;100.00;100514.28;5057243;28;20517;-51
2021/07/08 02:10:10;;;;;;;0.40;0.20;;;;;;;15.82;100.00;100509.16;5070725;28;20461;-51
2021/07/08 02:12:38;;;;;;;0.40;0.20;;;;;;;15.82;100.00;100511.81;5070425;28;20553;-51
2021/07/08 02:15:07;;;;;;;0.40;0.20;;;;;;;16.13;100.00;100509.44;5062997;28;20450;-51
2021/07/08 02:17:34;;;;;;;0.40;0.20;;;;;;;16.34;100.00;100491.44;5070419;28;20492;-51
2021/07/08 02:20:04;;;;;;;0.40;0.20;;;;;;;16.25;100.00;100498.09;5070157;28;20461;-51
2021/07/08 02:22:32;;;;;;;0.40;0.20;;;;;;;16.29;100.00;100504.19;5071403;28;20462;-52
2021/07/08 02:25:00;;;;;;;0.40;0.30;;;;;;;16.22;100.00;100503.63;5067824;28;20454;-52
2021/07/08 02:27:27;;;;;;;0.40;0.30;;;;;;;16.23;100.00;100496.44;5060030;28;20450;-52
2021/07/08 02:29:53;;;;;;;0.40;0.20;;;;;;;16.09;100.00;100497.13;5071759;28;20465;-51
2021/07/08 02:32:20;;;;;;;0.40;0.20;;;;;;;16.10;100.00;100496.16;5066736;28;20496;-51
2021/07/08 02:34:48;;;;;;;0.87;0.87;;;;;;;16.21;100.00;100496.53;5071363;28;20885;-51
2021/07/08 02:37:16;;;;;;;0.40;0.20;;;;;;;16.18;100.00;100488.63;5070541;28;20453;-55
2021/07/08 02:39:43;;;;;;;0.40;0.20;;;;;;;16.21;100.00;100484.94;5071749;28;20537;-52
2021/07/08 02:42:10;;;;;;;0.40;0.20;;;;;;;16.26;100.00;100477.50;5070131;28;20975;-51
2021/07/08 02:44:37;;;;;;;0.40;0.20;;;;;;;16.17;100.00;100477.94;5070731;28;20453;-51
2021/07/08 02:47:04;;;;;;;0.40;0.20;;;;;;;16.15;100.00;100472.66;5071812;28;20446;-52
2021/07/08 02:49:31;;;;;;;0.40;0.20;;;;;;;16.19;100.00;100468.91;5071140;28;20503;-50
2021/07/08 02:51:58;;;;;;;0.40;0.20;;;;;;;16.13;100.00;100479.06;5069957;28;20494;-51
2021/07/08 02:54:24;;;;;;;0.40;0.20;;;;;;;16.15;100.00;100485.22;5071124;28;20457;-51
2021/07/08 02:56:51;;;;;;;0.40;0.20;;;;;;;16.36;100.00;100477.94;5071207;28;20442;-51
2021/07/08 02:59:18;;;;;;;0.40;0.30;;;;;;;16.42;100.00;100480.31;5069880;28;20928;-51
2021/07/08 03:01:45;;;;;;;0.40;0.20;;;;;;;16.30;100.00;100471.03;5069725;28;20466;-51
2021/07/08 03:04:12;;;;;;;0.40;0.20;;;;;;;16.24;100.00;100466.88;5071555;28;20454;-51
2021/07/08 03:06:39;;;;;;;0.40;0.20;;;;;;;16.20;100.00;100461.75;5074062;28;20453;-51
2021/07/08 03:09:06;;;;;;;0.40;0.20;;;;;;;16.19;100.00;100476.97;5074674;28;20495;-50
2021/07/08 03:11:33;;;;;;;0.50;0.40;;;;;;;16.13;100.00;100482.59;5073520;28;20536;-52
2021/07/08 03:14:00;;;;;;;0.40;0.20;;;;;;;16.13;100.00;100481.75;5074947;28;20438;-50
2021/07/08 03:16:27;;;;;;;0.40;0.20;;;;;;;16.07;100.00;100490.09;5055355;28;20455;-52
2021/07/08 03:18:55;;;;;;;0.40;0.20;;;;;;;16.11;100.00;100492.53;5053922;28;20504;-51
2021/07/08 03:21:22;;;;;;;0.40;0.20;;;;;;;16.32;100.00;100489.78;5055391;28;20477;-52
2021/07/08 03:23:49;;;;;;;0.40;0.20;;;;;;;16.38;100.00;100493.00;5061881;28;20438;-52
2021/07/08 03:26:16;;;;;;;0.40;0.20;;;;;;;16.59;100.00;100488.41;5061299;28;20482;-51
2021/07/08 03:28:43;;;;;;;0.40;0.20;;;;;;;16.41;100.00;100486.63;5060829;28;20479;-51
2021/07/08 03:31:10;;;;;;;0.40;0.20;;;;;;;16.30;100.00;100497.88;5072021;28;20522;-51
2021/07/08 03:33:37;;;;;;;0.40;0.20;;;;;;;16.27;100.00;100512.31;5074708;28;20464;-51
2021/07/08 03:36:04;;;;;;;0.40;0.20;;;;;;;16.21;100.00;100517.13;5074968;28;20441;-53
2021/07/08 03:38:31;;;;;;;0.40;0.20;;;;;;;16.17;100.00;100511.03;5075127;28;20442;-52
2021/07/08 03:40:58;;;;;;;0.40;0.20;;;;;;;16.10;100.00;100504.22;5073918;28;20465;-51
2021/07/08 03:43:25;;;;;;;0.40;0.20;;;;;;;16.02;100.00;100506.38;5075034;28;20472;-51
2021/07/08 03:45:53;;;;;;;0.40;0.20;;;;;;;16.11;100.00;100495.22;5074343;28;20557;-51
2021/07/08 03:48:20;;;;;;;0.40;0.20;;;;;;;16.14;100.00;100503.13;5074882;28;20943;-51
2021/07/08 03:50:47;;;;;;;0.40;0.20;;;;;;;16.22;100.00;100508.13;5074385;28;20482;-51
2021/07/08 03:53:13;;;;;;;0.40;0.20;;;;;;;16.11;100.00;100515.81;5074603;28;20445;-50
2021/07/08 03:55:40;;;;;;;0.40;0.20;;;;;;;16.22;100.00;100521.53;5072917;28;20480;-50
2021/07/08 03:58:07;;;;;;;0.40;0.20;;;;;;;16.23;100.00;100521.47;5074440;28;20454;-50
2021/07/08 04:00:38;;;;;;;0.40;0.20;;;;;;;16.18;100.00;100522.63;5074874;28;20493;-51
2021/07/08 04:03:16;;;;;;;0.40;0.20;;;;;;;16.39;100.00;100521.59;5073288;28;20448;-51
2021/07/08 04:05:46;;;;;;;0.40;0.20;;;;;;;16.29;100.00;100509.56;5073596;28;20943;-51
2021/07/08 04:08:14;;;;;;;0.40;0.20;;;;;;;16.43;100.00;100508.88;5073383;28;21016;-51
2021/07/08 04:10:43;;;;;;;0.40;0.20;;;;;;;16.39;100.00;100515.34;5074373;28;20481;-51
2021/07/08 04:13:13;;;;;;;0.40;0.20;;;;;;;16.35;100.00;100511.09;5073210;28;20487;-52
2021/07/08 04:15:42;;;;;;;0.40;0.20;;;;;;;16.44;100.00;100502.56;5058783;28;20443;-51
2021/07/08 04:18:11;;;;;;;0.40;0.20;;;;;;;16.48;100.00;100493.44;5066881;28;20458;-51
2021/07/08 04:20:38;;;;;;;0.40;0.20;;;;;;;16.40;100.00;100485.75;5074733;28;20508;-51
2021/07/08 04:23:06;;;;;;;1.47;1.37;;;;;;;16.37;100.00;100485.03;5072888;28;20540;-51
2021/07/08 04:25:36;;;;;;;0.40;0.20;;;;;;;16.43;100.00;100495.47;5065571;28;20502;-51
2021/07/08 04:28:05;;;;;;;0.40;0.27;;;;;;;16.43;100.00;100492.78;5068906;28;20453;-51
2021/07/08 04:30:33;;;;;;;0.40;0.20;;;;;;;16.41;100.00;100489.31;5073059;28;20907;-51
2021/07/08 04:33:01;;;;;;;0.50;0.40;;;;;;;16.52;100.00;100473.53;5070455;28;20497;-51
2021/07/08 04:35:40;;;;;;;0.40;0.20;;;;;;;16.55;100.00;100492.16;5074523;28;20438;-51
2021/07/08 04:38:09;;;;;;;0.40;0.20;;;;;;;16.68;100.00;100490.63;5074127;28;20947;-51
2021/07/08 04:40:37;;;;;;;0.40;0.20;;;;;;;16.72;100.00;100491.34;5073990;28;20553;-51
2021/07/08 04:43:05;;;;;;;0.40;0.30;;;;;;;16.77;100.00;100494.69;5073824;28;20442;-51
2021/07/08 04:45:32;;;;;;;0.40;0.30;;;;;;;16.74;100.00;100492.16;5072946;28;20466;-51
2021/07/08 04:48:00;;;;;;;0.40;0.20;;;;;;;16.76;100.00;100482.22;5072272;28;20450;-51
2021/07/08 04:50:28;;;;;;;0.40;0.20;;;;;;;16.69;100.00;100495.06;5072248;28;20454;-51
2021/07/08 04:52:55;;;;;;;0.40;0.20;;;;;;;16.55;100.00;100501.09;5073672;28;20543;-51
2021/07/08 04:55:24;;;;;;;0.40;0.20;;;;;;;16.64;100.00;100506.97;5073646;28;20926;-52
2021/07/08 04:57:52;;;;;;;0.40;0.40;;;;;;;16.80;100.00;100511.50;5072153;28;20465;-51
2021/07/08 05:00:21;;;;;;;0.40;0.20;;;;;;;16.88;100.00;100509.31;5073710;28;20482;-51
2021/07/08 05:02:50;;;;;;;0.40;0.20;;;;;;;16.74;100.00;100509.16;5053509;28;20455;-51
2021/07/08 05:05:19;;;;;;;0.40;0.20;;;;;;;16.82;100.00;100511.41;5053414;28;20825;-51
2021/07/08 05:07:46;;;;;;;0.40;0.20;;;;;;;16.93;100.00;100513.56;5053448;28;20462;-51
2021/07/08 05:10:15;;;;;;;0.43;0.37;;;;;;;17.00;100.00;100512.31;5051892;28;20469;-51
2021/07/08 05:12:43;;;;;;;0.40;0.20;;;;;;;17.06;100.00;100512.00;5053371;28;20518;-50
2021/07/08 05:15:13;;;;;;;0.40;0.20;;;;;;;17.15;100.00;100506.16;5053114;28;20935;-51
2021/07/08 05:17:41;;;;;;;0.40;0.20;;;;;;;18.18;100.00;100505.00;5052420;28;20538;-51
2021/07/08 05:20:09;;;;;;;0.40;0.20;;;;;;;18.70;100.00;100514.63;5052112;28;20542;-51
2021/07/08 05:22:38;;;;;;;0.40;0.30;;;;;;;18.42;100.00;100518.03;5051931;28;20962;-51
2021/07/08 05:25:07;;;;;;;0.40;0.20;;;;;;;18.84;100.00;100518.25;5066133;28;20453;-51
2021/07/08 05:27:34;;;;;;;0.97;0.97;;;;;;;19.23;100.00;100519.53;5052115;28;20455;-51
2021/07/08 05:30:03;;;;;;;0.40;0.30;;;;;;;19.09;100.00;100511.41;5068914;28;20524;-51
2021/07/08 05:32:30;;;;;;;0.70;0.70;;;;;;;19.13;100.00;100505.72;5069427;28;20497;-52
2021/07/08 05:34:57;;;;;;;1.17;1.07;;;;;;;19.65;98.86;100513.34;5072441;28;20454;-51
2021/07/08 05:37:24;;;;;;;0.40;0.30;;;;;;;19.55;98.23;100512.19;5054990;28;20998;-51
2021/07/08 05:39:51;;;;;;;0.40;0.30;;;;;;;19.26;100.00;100522.03;5071262;28;20449;-51
2021/07/08 05:42:18;;;;;;;0.87;0.87;;;;;;;19.08;100.00;100513.22;5071132;28;20475;-51
2021/07/08 05:44:44;;;;;;;0.40;0.20;;;;;;;19.41;99.07;100518.38;5071718;28;22196;-52
2021/07/08 05:47:12;;;;;;;0.40;0.30;;;;;;;18.99;100.00;100524.56;5071602;28;20932;-52
2021/07/08 05:49:55;;;;;;;0.40;0.20;;;;;;;18.76;100.00;100516.97;5059538;28;20457;-52
2021/07/08 05:52:23;;;;;;;0.40;0.30;;;;;;;19.41;100.00;100521.09;5071003;28;20497;-52
2021/07/08 05:54:50;;;;;;;0.40;0.20;;;;;;;19.63;99.29;100526.06;5071098;28;20431;-51
2021/07/08 05:57:16;;;;;;;0.40;0.20;;;;;;;20.35;96.33;100527.72;5072035;28;20997;-51
2021/07/08 05:59:43;;;;;;;0.40;0.20;;;;;;;19.92;96.09;100531.44;5072643;28;20454;-52
2021/07/08 06:02:10;;;;;;;0.40;0.20;;;;;;;20.02;96.50;100522.69;5071110;28;20469;-52
2021/07/08 06:04:38;;;;;;;0.40;0.30;;;;;;;19.20;98.96;100534.06;5072582;28;20986;-52
2021/07/08 06:07:05;;;;;;;0.40;0.20;;;;;;;19.98;96.96;100526.53;5071053;28;20546;-52
2021/07/08 06:09:31;;;;;;;0.40;0.20;;;;;;;20.36;95.39;100529.44;5072250;28;20450;-52
2021/07/08 06:11:58;;;;;;;0.40;0.20;;;;;;;20.33;97.05;100532.34;5071817;28;20489;-51
2021/07/08 06:14:25;;;;;;;0.40;0.37;;;;;;;20.83;93.29;100535.41;5068688;28;20454;-51
2021/07/08 06:16:52;;;;;;;0.40;0.30;;;;;;;20.80;93.14;100538.31;5067457;28;20446;-52
2021/07/08 06:19:19;;;;;;;0.40;0.20;;;;;;;20.75;93.70;100538.63;5072542;28;20464;-52
2021/07/08 06:21:48;;;;;;;0.40;0.20;;;;;;;20.36;94.99;100550.19;5071936;28;20473;-52
2021/07/08 06:24:19;;;;;;;0.40;0.20;;;;;;;20.03;95.78;100559.50;5072458;28;20450;-51
2021/07/08 06:26:46;;;;;;;0.60;0.60;;;;;;;19.96;96.93;100560.84;5058220;28;20493;-51
2021/07/08 06:29:13;;;;;;;0.40;0.30;;;;;;;19.80;97.32;100570.88;5072019;28;20446;-51
2021/07/08 06:31:40;;;;;;;0.40;0.20;;;;;;;20.00;97.43;100573.16;5068232;28;20521;-51
2021/07/08 06:34:07;;;;;;;0.40;0.20;;;;;;;19.76;98.10;100574.72;5071896;28;20445;-51
2021/07/08 06:36:34;;;;;;;0.40;0.30;;;;;;;19.69;99.51;100571.53;5071551;28;20461;-50
2021/07/08 06:39:01;;;;;;;0.40;0.20;;;;;;;19.94;98.22;100575.41;5072751;28;20453;-51
2021/07/08 06:41:28;;;;;;;0.40;0.20;;;;;;;20.17;97.90;100582.06;5075779;28;20850;-51
2021/07/08 06:43:54;;;;;;;0.40;0.20;;;;;;;20.31;97.11;100585.59;5075738;28;20452;-51
2021/07/08 06:46:27;;;;;;;0.40;0.30;;;;;;;19.90;100.00;100576.56;5073871;28;20470;-51
2021/07/08 06:48:55;;;;;;;0.40;0.30;;;;;;;19.93;99.81;100577.22;5074687;28;20442;-51
2021/07/08 06:51:23;;;;;;;0.40;0.20;;;;;;;19.94;99.61;100580.78;5075242;28;20994;-50
2021/07/08 06:53:54;;;;;;;0.40;0.20;;;;;;;19.73;100.00;100578.44;5075278;28;20533;-50
2021/07/08 06:56:21;;;;;;;0.40;0.20;;;;;;;19.86;99.68;100583.97;5075712;28;20446;-50
2021/07/08 06:58:48;;;;;;;0.40;0.20;;;;;;;19.86;100.00;100583.09;5075320;28;20504;-51
2021/07/08 07:01:16;;;;;;;0.40;0.20;;;;;;;19.87;100.00;100584.81;5075580;28;20470;-51
2021/07/08 07:03:43;;;;;;;0.40;0.20;;;;;;;20.01;100.00;100592.91;5074886;28;20507;-50
2021/07/08 07:06:10;;;;;;;0.40;0.37;;;;;;;19.96;98.49;100584.25;5067758;28;20484;-50
2021/07/08 07:08:41;;;;;;;0.40;0.30;;;;;;;19.80;99.33;100573.56;5069867;28;20448;-51
2021/07/08 07:11:08;;;;;;;0.40;0.20;;;;;;;20.62;97.19;100572.81;5075022;28;20552;-51
2021/07/08 07:13:35;;;;;;;0.40;0.20;;;;;;;20.00;97.86;100566.91;5074706;28;20489;-51
2021/07/08 07:16:02;;;;;;;0.40;0.20;;;;;;;19.89;99.20;100575.69;5066619;28;20446;-51
2021/07/08 07:18:33;;;;;;;0.40;0.20;;;;;;;19.73;100.00;100574.88;5074838;28;20442;-51
2021/07/08 07:21:00;;;;;;;0.40;0.30;;;;;;;20.10;96.47;100570.75;5075045;28;20451;-51
2021/07/08 07:23:27;;;;;;;0.50;0.50;;;;;;;20.37;96.21;100578.91;5074892;28;20438;-52
2021/07/08 07:25:53;;;;;;;0.40;0.20;;;;;;;20.25;96.62;100569.78;5063936;28;20455;-51
2021/07/08 07:28:20;;;;;;;0.40;0.20;;;;;;;20.03;98.52;100555.94;5071753;28;20446;-51
2021/07/08 07:30:47;;;;;;;0.40;0.20;;;;;;;20.07;98.77;100558.34;5074442;28;20531;-52
2021/07/08 07:33:13;;;;;;;0.40;0.20;;;;;;;20.17;98.35;100558.63;5071768;28;20493;-52
2021/07/08 07:35:40;;;;;;;0.40;0.20;;;;;;;20.13;99.27;100560.63;5074927;28;20478;-52
2021/07/08 07:38:11;;;;;;;0.40;0.20;;;;;;;20.02;100.00;100548.81;5074807;28;20931;-51
2021/07/08 07:40:42;;;;;;;10.13;2.10;;;;;;;20.26;100.00;100562.53;5074564;28;20549;-52
2021/07/08 07:43:09;;;;;;;0.40;0.20;;;;;;;20.44;100.00;100560.53;5074086;28;20606;-51
2021/07/08 07:45:37;;;;;;;0.40;0.20;;;;;;;20.60;99.30;100558.56;5072732;28;20487;-52
2021/07/08 07:48:04;;;;;;;0.40;0.20;;;;;;;20.60;99.62;100569.38;5074451;28;20499;-52
2021/07/08 07:50:33;;;;;;;0.40;0.20;;;;;;;20.56;98.79;100571.41;5073288;28;21012;-51
2021/07/08 07:53:00;;;;;;;0.40;0.20;;;;;;;20.55;98.75;100568.78;5073842;28;20535;-52
2021/07/08 07:55:27;;;;;;;0.43;0.30;;;;;;;20.63;99.23;100572.72;5074322;28;20997;-52
2021/07/08 07:57:58;;;;;;;0.77;0.77;;;;;;;21.10;96.33;100570.50;5076047;28;20428;-51
2021/07/08 08:00:27;;;;;;;0.50;0.40;;;;;;;20.86;96.52;100578.44;5074134;28;20935;-51
2021/07/08 08:02:54;;;;;;;0.50;0.40;;;;;;;21.04;96.00;100569.09;5074476;28;20446;-51
2021/07/08 08:05:33;;;;;;;0.40;0.20;;;;;;;21.39;95.56;100576.69;5074881;28;20470;-52
2021/07/08 08:10:46;;;;;;;0.40;0.20;;;;;;;21.36;96.26;100574.16;5074128;28;20465;-51
2021/07/08 08:13:13;;;;;;;0.40;0.20;;;;;;;21.43;96.49;100580.91;5073982;28;20898;-51
2021/07/08 08:15:40;;;;;;;0.40;0.30;;;;;;;21.49;96.87;100575.06;5066237;28;20461;-52
2021/07/08 08:18:07;;;;;;;0.70;0.70;;;;;;;21.66;96.22;100576.63;5074163;28;20456;-52
2021/07/08 08:20:34;;;;;;;0.50;0.40;;;;;;;21.57;98.05;100573.56;5073437;28;20444;-52
2021/07/08 08:23:02;;;;;;;0.40;0.30;;;;;;;21.50;97.07;100576.78;5073809;28;20481;-52
2021/07/08 08:25:29;;;;;;;0.40;0.30;;;;;;;21.82;95.47;100575.41;5053940;28;20442;-52
2021/07/08 08:27:57;;;;;;;0.47;0.40;;;;;;;21.86;95.10;100576.94;5053605;28;20968;-52
2021/07/08 08:30:24;;;;;;;0.40;0.20;;;;;;;21.75;94.98;100589.47;5054606;28;20477;-51
2021/07/08 08:32:51;;;;;;;0.40;0.20;;;;;;;21.94;96.67;100589.94;5054495;28;20559;-51
2021/07/08 08:35:18;;;;;;;1.03;1.03;;;;;;;22.05;95.69;100595.44;5054158;28;20450;-52
2021/07/08 08:37:45;;;;;;;0.50;0.40;;;;;;;22.03;95.27;100602.78;5053759;28;20773;-52
2021/07/08 08:40:13;;;;;;;0.40;0.30;;;;;;;22.06;94.69;100599.03;5053906;28;20508;-52
2021/07/08 08:42:45;;;;;;;0.40;0.20;;;;;;;21.91;94.31;100600.09;5053023;28;20492;-51
2021/07/08 08:45:17;;;;;;;1.83;1.80;;;;;;;21.92;94.06;100604.53;5053424;28;20545;-51
2021/07/08 08:48:07;;;;;;;0.40;0.20;;;;;;;22.25;93.33;100610.28;5053421;28;20418;-51
2021/07/08 08:50:34;;;;;;;0.40;0.20;;;;;;;22.25;91.73;100606.72;5053247;28;20475;-51
2021/07/08 08:53:02;;;;;;;0.40;0.27;;;;;;;22.43;92.67;100608.94;5053102;28;20498;-52
2021/07/08 08:55:28;;;;;;;0.40;0.30;;;;;;;22.17;95.35;100610.81;5052995;28;20426;-54
2021/07/08 08:57:55;;;;;;;0.40;0.20;;;;;;;22.37;97.04;100612.13;5053379;28;20526;-51
2021/07/08 09:00:24;;;;;;;0.40;0.20;;;;;;;22.26;96.41;100613.88;5052783;28;20473;-51
2021/07/08 09:03:01;;;;;;;0.40;0.30;;;;;;;22.19;96.30;100608.00;5053043;28;20494;-52
2021/07/08 09:05:28;;;;;;;0.47;0.33;;;;;;;22.19;96.52;100605.28;5053263;28;20438;-52
2021/07/08 09:08:15;;;;;;;4.47;2.00;;;;;;;22.41;96.58;100601.91;5052825;28;20966;-51
2021/07/08 09:11:09;;;;;;;0.60;0.60;;;;;;;22.29;95.62;100600.09;5052766;28;20968;-52
2021/07/08 09:13:42;;;;;;;0.40;0.20;;;;;;;22.74;94.41;100612.09;5052923;28;20812;-52
2021/07/08 09:16:14;;;;;;;0.90;0.83;;;;;;;23.16;91.80;100599.91;5061396;28;20852;-51
2021/07/08 09:18:42;;;;;;;0.40;0.23;;;;;;;23.37;91.19;100596.56;5072373;28;20935;-52
2021/07/08 09:21:19;;;;;;;0.60;0.50;;;;;;;23.04;92.25;100590.03;5072380;28;20473;-52
2021/07/08 09:24:14;;;;;;;0.40;0.20;;;;;;;22.91;93.34;100586.50;5072684;28;20416;-52
2021/07/08 09:26:44;;;;;;;0.50;0.40;;;;;;;22.89;92.56;100583.03;5059484;28;20492;-52
2021/07/08 09:29:18;;;;;;;0.40;0.30;;;;;;;22.98;91.27;100569.66;5072745;28;20438;-52
2021/07/08 09:31:51;;;;;;;0.40;0.30;;;;;;;23.12;90.84;100574.03;5068794;28;21024;-51
2021/07/08 09:34:23;;;;;;;0.40;0.20;;;;;;;22.79;91.54;100572.00;5072467;28;20464;-52
2021/07/08 09:37:14;;;;;;;0.40;0.20;;;;;;;23.10;90.67;100558.84;5072525;28;20450;-51
2021/07/08 09:39:49;;;;;;;0.50;0.20;;;;;;;22.91;91.88;100553.97;5072438;28;20508;-52
2021/07/08 09:42:32;;;;;;;0.50;0.30;;;;;;;23.68;89.90;100554.34;5072566;28;20466;-52
2021/07/08 09:45:07;;;;;;;0.40;0.20;;;;;;;23.82;89.35;100548.69;5071521;28;20955;-52
2021/07/08 09:47:37;;;;;;;0.40;0.23;;;;;;;23.17;90.46;100558.28;5071955;28;20422;-52
2021/07/08 09:50:08;;;;;;;0.40;0.27;;;;;;;23.58;91.42;100562.38;5072150;28;20442;-52
2021/07/08 09:52:35;;;;;;;0.50;0.23;;;;;;;23.40;91.37;100558.31;5072288;28;21033;-52
2021/07/08 09:57:41;;;;;;;0.60;0.60;;;;;;;24.03;86.78;100563.28;5072585;28;20437;-51
2021/07/08 10:00:22;;;;;;;0.40;0.20;;;;;;;23.73;88.77;100563.88;5072179;28;20828;-52
2021/07/08 10:02:51;;;;;;;0.40;0.30;;;;;;;23.57;90.63;100564.22;5072013;28;20453;-52
2021/07/08 10:05:19;;;;;;;0.40;0.30;;;;;;;23.41;91.42;100563.63;5072007;28;20954;-51
2021/07/08 10:07:47;;;;;;;0.50;0.40;;;;;;;23.38;91.74;100580.16;5072127;28;20458;-51
2021/07/08 10:10:15;;;;;;;1.13;1.13;;;;;;;23.39;91.72;100571.03;5074135;28;20437;-51
2021/07/08 10:12:47;;;;;;;0.40;0.20;;;;;;;23.56;91.68;100573.28;5073371;28;20543;-51
2021/07/08 10:15:15;;;;;;;0.43;0.20;;;;;;;23.66;92.01;100584.34;5063606;28;20446;-51
2021/07/08 10:17:43;;;;;;;0.50;0.20;;;;;;;23.79;92.14;100585.09;5071798;28;20428;-51
2021/07/08 10:20:14;;;;;;;0.40;0.20;;;;;;;23.75;91.48;100586.34;5071671;28;20548;-52
2021/07/08 10:22:42;;;;;;;0.50;0.40;;;;;;;23.86;89.17;100585.50;5072149;28;20438;-51
2021/07/08 10:25:11;;;;;;;0.47;0.30;;;;;;;23.91;89.09;100585.97;5067908;28;20935;-51
2021/07/08 10:27:41;;;;;;;0.60;0.60;;;;;;;23.86;89.46;100588.22;5062733;28;20429;-51
2021/07/08 10:30:10;;;;;;;0.47;0.30;;;;;;;23.79;90.38;100578.81;5071655;28;20483;-52
2021/07/08 10:32:37;;;;;;;0.40;0.30;;;;;;;23.70;91.24;100584.94;5068422;28;20456;-51
2021/07/08 10:35:06;;;;;;;0.40;0.20;;;;;;;23.75;91.79;100589.06;5066242;28;20944;-51
2021/07/08 10:37:39;;;;;;;0.40;0.20;;;;;;;23.94;92.75;100586.59;5063936;28;20424;-52
2021/07/08 10:40:27;;;;;;;0.40;0.30;;;;;;;23.84;93.98;100582.88;5071620;28;20424;-51
2021/07/08 10:42:54;;;;;;;0.40;0.23;;;;;;;23.93;95.09;100582.16;5071651;28;20709;-51
2021/07/08 10:45:36;;;;;;;0.50;0.30;;;;;;;23.62;99.39;100572.88;5070609;28;20458;-52
2021/07/08 10:48:11;;;;;;;0.50;0.40;;;;;;;23.58;100.00;100575.94;5071519;28;20424;-51
2021/07/08 10:50:46;;;;;;;0.50;0.30;;;;;;;23.59;100.00;100577.69;5071610;28;20506;-51
2021/07/08 10:53:18;;;;;;;0.40;0.20;;;;;;;23.54;99.99;100569.84;5071846;28;20497;-51
2021/07/08 10:55:51;;;;;;;0.40;0.30;;;;;;;23.41;99.45;100574.50;5071397;28;20446;-51
2021/07/08 10:58:40;;;;;;;0.40;0.20;;;;;;;23.50;99.01;100573.78;5071492;28;20416;-52
2021/07/08 11:01:35;;;;;;;0.40;0.30;;;;;;;23.27;98.84;100562.00;5070914;28;20523;-52
2021/07/08 11:04:03;;;;;;;0.40;0.30;;;;;;;23.13;98.60;100575.75;5071380;28;20428;-50
2021/07/08 11:06:31;;;;;;;1.37;1.37;;;;;;;23.17;98.76;100570.97;5071426;28;20445;-52
2021/07/08 11:09:22;;;;;;;0.40;0.20;;;;;;;23.06;97.00;100563.66;5071737;28;20449;-51
2021/07/08 11:11:50;;;;;;;1.17;1.07;;;;;;;23.03;96.67;100562.03;5071479;28;20531;-51
2021/07/08 11:14:19;;;;;;;0.50;0.30;;;;;;;23.13;98.99;100562.19;5069020;28;20943;-51
2021/07/08 11:17:11;;;;;;;0.40;0.30;;;;;;;23.18;95.34;100560.00;5065458;28;20449;-52
2021/07/08 11:19:44;;;;;;;0.50;0.30;;;;;;;23.46;96.23;100558.72;5071677;28;20416;-52
2021/07/08 11:22:26;;;;;;;0.50;0.50;;;;;;;23.20;96.53;100557.16;5071334;28;20466;-52
2021/07/08 11:24:54;;;;;;;0.77;0.77;;;;;;;23.39;95.83;100549.31;5069696;28;20486;-52
2021/07/08 11:27:21;;;;;;;0.53;0.47;;;;;;;23.29;97.43;100541.03;5063160;28;20502;-52
2021/07/08 11:29:58;;;;;;;0.80;0.80;;;;;;;23.10;99.04;100535.31;5074734;28;20450;-52
2021/07/08 11:32:35;;;;;;;0.50;0.30;;;;;;;23.15;100.00;100533.09;5071237;28;20798;-52
2021/07/08 11:35:05;;;;;;;0.40;0.20;;;;;;;23.13;100.00;100534.19;5074729;28;20579;-52
2021/07/08 11:40:08;;;;;;;0.40;0.20;;;;;;;23.03;100.00;100542.19;5054718;28;20834;-52